createdAt,value
2022-07-25T03:11:00.516Z,437.9
2022-07-25T03:12:00.507Z,479.7
2022-07-25T03:13:00.505Z,521.5
2022-07-25T03:14:00.510Z,570.7
2022-07-25T03:16:00.508Z,676.5
2022-07-25T03:17:00.558Z,733.3
2022-07-25T03:18:00.507Z,790.0
2022-07-25T03:19:00.512Z,852.9
2022-07-25T03:20:05.729Z,915.9
2022-07-25T03:21:00.512Z,985.1
2022-07-25T03:22:00.517Z,1054.4
2022-07-25T03:23:00.508Z,1123.7
2022-07-25T03:24:00.511Z,1198.5
2022-07-25T03:26:00.510Z,1354.4
2022-07-25T03:27:00.510Z,1435.5
2022-07-25T03:28:00.509Z,1516.7
2022-07-25T03:29:00.506Z,1607.4
2022-07-25T03:30:01.159Z,1698.1
2022-07-25T03:31:00.509Z,1809.1
2022-07-25T03:32:00.673Z,1920.1
2022-07-25T03:33:00.505Z,2031.1
2022-07-25T03:34:00.507Z,2164.6
2022-07-25T03:35:00.735Z,2298.1
2022-07-25T03:36:01.542Z,2449.5
2022-07-25T03:37:00.517Z,2601.0
2022-07-25T03:38:00.523Z,2752.5
2022-07-25T03:39:00.521Z,2914.1
2022-07-25T03:40:00.737Z,3075.8
2022-07-25T03:41:00.520Z,3232.7
2022-07-25T03:42:00.521Z,3389.7
2022-07-25T03:43:00.537Z,3546.6
2022-07-25T03:44:00.576Z,3680.7
2022-07-25T03:46:00.591Z,3918.5
2022-07-25T03:47:00.516Z,4022.1
2022-07-25T03:48:00.532Z,4125.7
2022-07-25T03:49:00.546Z,4213.7
2022-07-25T03:50:00.752Z,4301.8
2022-07-25T03:51:04.945Z,4376.3
2022-07-25T03:52:00.523Z,4450.9
2022-07-25T03:53:00.519Z,4525.4
2022-07-25T03:54:00.531Z,4590.9
2022-07-25T03:55:00.739Z,4656.3
2022-07-25T03:56:00.533Z,4732.8
2022-07-25T03:57:00.520Z,4809.3
2022-07-25T03:58:05.595Z,4885.7
2022-07-25T03:59:05.593Z,4995.1
2022-07-25T04:01:00.610Z,5288.0
2022-07-25T04:02:00.631Z,5471.6
2022-07-25T04:03:00.526Z,5655.2
2022-07-25T04:04:00.533Z,5955.5
2022-07-25T04:05:01.006Z,6255.9
2022-07-25T04:06:00.527Z,6744.3
2022-07-25T04:07:00.528Z,7232.7
2022-07-25T04:08:00.536Z,7721.1
2022-07-25T04:09:00.529Z,8359.6
2022-07-25T04:10:00.803Z,8998.1
2022-07-25T04:11:00.531Z,9658.8
2022-07-25T04:12:00.531Z,10319.5
2022-07-25T04:13:00.522Z,10980.1
2022-07-25T04:14:00.522Z,11638.1
2022-07-25T04:15:01.236Z,12296.0
2022-07-25T04:16:00.527Z,12859.4
2022-07-25T04:17:00.662Z,13422.8
2022-07-25T04:18:00.529Z,13986.2
2022-07-25T04:19:00.603Z,14383.4
2022-07-25T04:20:00.757Z,14780.6
2022-07-25T04:21:00.532Z,14951.0
2022-07-25T04:22:00.531Z,15121.4
2022-07-25T04:23:00.541Z,15291.8
2022-07-25T04:24:00.525Z,15371.1
2022-07-25T04:25:00.759Z,15450.5
2022-07-25T04:26:00.532Z,15704.9
2022-07-25T04:27:00.530Z,15959.3
2022-07-25T04:28:00.529Z,16213.7
2022-07-25T04:29:00.531Z,16750.7
2022-07-25T04:31:01.621Z,17997.9
2022-07-25T04:32:00.706Z,18708.1
2022-07-25T04:33:00.536Z,19418.2
2022-07-25T04:34:00.537Z,20269.5
2022-07-25T04:35:00.751Z,21120.7
2022-07-25T04:36:00.535Z,22208.8
2022-07-25T04:37:00.537Z,23296.9
2022-07-25T04:38:00.541Z,24384.9
2022-07-25T04:39:00.541Z,25617.4
2022-07-25T04:40:01.175Z,26849.9
2022-07-25T04:41:00.533Z,27817.4
2022-07-25T04:42:00.542Z,28784.9
2022-07-25T04:43:00.543Z,29752.5
2022-07-25T04:44:00.536Z,30402.0
2022-07-25T04:46:00.607Z,31644.1
2022-07-25T04:47:00.605Z,32236.7
2022-07-25T04:48:00.535Z,32829.3
2022-07-25T04:49:00.611Z,33458.5
2022-07-25T04:50:01.242Z,34087.6
2022-07-25T04:51:00.538Z,34519.2
2022-07-25T04:52:00.538Z,34950.8
2022-07-25T04:53:00.557Z,35382.4
2022-07-25T04:54:00.541Z,35516.9
2022-07-25T04:55:01.290Z,35651.5
2022-07-25T04:56:00.539Z,35790.1
2022-07-25T04:57:00.536Z,35928.8
2022-07-25T04:58:00.536Z,36067.5
2022-07-25T04:59:04.784Z,36366.0
2022-07-25T05:01:00.619Z,37257.3
2022-07-25T05:02:00.588Z,37850.1
2022-07-25T05:03:00.537Z,38442.9
2022-07-25T05:04:00.539Z,39404.1
2022-07-25T05:05:03.741Z,40365.3
2022-07-25T05:06:00.537Z,41697.4
2022-07-25T05:07:00.535Z,43029.5
2022-07-25T05:08:00.541Z,44361.5
2022-07-25T05:09:00.536Z,46016.8
2022-07-25T05:11:00.556Z,49468.5
2022-07-25T05:12:00.541Z,51265.0
2022-07-25T05:13:00.538Z,53061.5
2022-07-25T05:14:00.543Z,54886.9
2022-07-25T05:16:00.568Z,58145.1
2022-07-25T05:17:00.552Z,59577.7
2022-07-25T05:18:00.549Z,61010.4
2022-07-25T05:19:00.544Z,61927.1
2022-07-25T05:20:01.197Z,62843.7
2022-07-25T05:21:00.549Z,63370.7
2022-07-25T05:22:00.565Z,63897.7
2022-07-25T05:23:00.551Z,64424.7
2022-07-25T05:24:00.558Z,64706.7
2022-07-25T05:26:00.527Z,65170.7
2022-07-25T05:27:00.547Z,65352.9
2022-07-25T05:28:00.544Z,65535.0
2022-07-25T05:30:01.257Z,65535.0
2022-07-25T05:34:00.545Z,65526.1
2022-07-25T05:35:02.231Z,65517.3
2022-07-25T05:36:00.552Z,64967.1
2022-07-25T05:37:00.549Z,64417.0
2022-07-25T05:38:00.547Z,63866.9
2022-07-25T05:39:00.550Z,63168.3
2022-07-25T05:41:00.551Z,61890.3
2022-07-25T05:42:00.548Z,61310.9
2022-07-25T05:43:03.140Z,60731.5
2022-07-25T05:44:00.546Z,60216.1
2022-07-25T05:46:00.553Z,59255.2
2022-07-25T05:47:00.629Z,58809.6
2022-07-25T05:48:00.616Z,58364.0
2022-07-25T05:49:00.583Z,58372.9
2022-07-25T05:50:01.358Z,58381.7
2022-07-25T05:51:00.552Z,58931.9
2022-07-25T05:52:00.550Z,59482.0
2022-07-25T05:53:05.552Z,60032.1
2022-07-25T05:54:00.548Z,60730.7
2022-07-25T05:55:00.816Z,61429.3
2022-07-25T05:56:00.554Z,62008.7
2022-07-25T05:57:00.562Z,62588.1
2022-07-25T05:58:00.547Z,63167.5
2022-07-25T05:59:00.607Z,63682.9
2022-07-25T06:00:03.249Z,64198.2
2022-07-25T06:01:00.550Z,64643.8
2022-07-25T06:02:00.657Z,65089.4
2022-07-25T06:03:00.820Z,65535.0
2022-07-25T06:15:01.272Z,65535.0
2022-07-25T07:15:01.379Z,65535.0
2022-07-25T07:30:01.294Z,65535.0
2022-07-25T09:15:07.493Z,65535.0
2022-07-25T09:30:01.415Z,65535.0
2022-07-25T10:30:01.456Z,65535.0
2022-07-25T11:00:02.858Z,65535.0
2022-07-25T11:15:01.308Z,65535.0
2022-07-25T11:30:01.414Z,65535.0
2022-07-25T11:45:01.419Z,65535.0
2022-07-25T12:22:00.724Z,65311.5
2022-07-25T12:23:00.653Z,65088.1
2022-07-25T12:24:00.653Z,63581.5
2022-07-25T12:26:00.703Z,60568.3
2022-07-25T12:27:00.655Z,59424.5
2022-07-25T12:28:00.672Z,58280.8
2022-07-25T12:29:00.657Z,58118.1
2022-07-25T12:31:00.776Z,57792.8
2022-07-25T12:32:00.660Z,57421.5
2022-07-25T12:33:00.653Z,57050.3
2022-07-25T12:37:00.728Z,57273.7
2022-07-25T12:38:00.684Z,57497.2
2022-07-25T12:39:00.653Z,59003.8
2022-07-25T12:40:01.302Z,60510.4
2022-07-25T12:41:00.654Z,62017.0
2022-07-25T12:42:00.653Z,63160.7
2022-07-25T12:43:00.655Z,64304.5
2022-07-25T12:44:00.654Z,64467.1
2022-07-25T12:45:01.290Z,64629.8
2022-07-25T12:46:00.702Z,64792.5
2022-07-25T12:47:00.676Z,65163.7
2022-07-25T12:48:00.688Z,65535.0
2022-07-25T13:00:07.714Z,65535.0
2022-07-25T13:27:00.812Z,65261.8
2022-07-25T13:28:00.676Z,64988.6
2022-07-25T13:42:00.670Z,65261.8
2022-07-25T13:43:00.667Z,65535.0
2022-07-25T15:15:02.996Z,65535.0
2022-07-25T16:15:01.595Z,65535.0
2022-07-25T16:45:01.384Z,65535.0
2022-07-25T17:15:01.480Z,65535.0
2022-07-25T17:32:00.481Z,65215.7
2022-07-25T17:33:00.483Z,64896.5
2022-07-25T17:34:00.519Z,63999.4
2022-07-25T17:35:01.255Z,63102.3
2022-07-25T17:36:00.479Z,62205.3
2022-07-25T17:37:00.549Z,60929.1
2022-07-25T17:38:00.492Z,59653.0
2022-07-25T17:39:00.526Z,58288.2
2022-07-25T17:40:02.482Z,56923.4
2022-07-25T17:41:00.482Z,55558.6
2022-07-25T17:42:00.476Z,54075.1
2022-07-25T17:43:00.605Z,52591.7
2022-07-25T17:44:00.526Z,50964.3
2022-07-25T17:46:00.708Z,47709.7
2022-07-25T17:47:00.598Z,46320.9
2022-07-25T17:48:00.551Z,44932.1
2022-07-25T17:49:01.692Z,44619.5
2022-07-25T17:50:01.224Z,44307.0
2022-07-25T17:51:00.550Z,43994.5
2022-07-25T17:52:00.495Z,44122.1
2022-07-25T17:53:00.488Z,44249.7
2022-07-25T17:54:00.527Z,44422.5
2022-07-25T17:55:01.657Z,44595.4
2022-07-25T17:56:00.490Z,44768.3
2022-07-25T17:57:00.486Z,45236.4
2022-07-25T17:58:00.492Z,45704.5
2022-07-25T17:59:00.511Z,46299.8
2022-07-25T18:01:01.461Z,47490.3
2022-07-25T18:02:00.560Z,48068.3
2022-07-25T18:03:00.524Z,48646.3
2022-07-25T18:04:00.515Z,48901.7
2022-07-25T18:05:01.196Z,49157.0
2022-07-25T18:06:00.487Z,49412.3
2022-07-25T18:07:00.488Z,49330.0
2022-07-25T18:08:00.489Z,49247.7
2022-07-25T18:09:00.531Z,49356.4
2022-07-25T18:10:01.147Z,49465.1
2022-07-25T18:11:00.507Z,49573.9
2022-07-25T18:12:00.486Z,49009.9
2022-07-25T18:13:00.480Z,48446.0
2022-07-25T18:14:00.539Z,48449.7
2022-07-25T18:15:01.247Z,48453.5
2022-07-25T18:16:00.529Z,48457.2
2022-07-25T18:17:00.487Z,48008.7
2022-07-25T18:18:00.562Z,47560.1
2022-07-25T18:19:00.529Z,46999.4
2022-07-25T18:20:00.703Z,46438.7
2022-07-25T18:21:00.492Z,45877.9
2022-07-25T18:22:00.492Z,45032.6
2022-07-25T18:23:00.492Z,44187.3
2022-07-25T18:24:00.533Z,43037.7
2022-07-25T18:25:00.711Z,41888.1
2022-07-25T18:26:00.492Z,40738.5
2022-07-25T18:27:00.495Z,40424.2
2022-07-25T18:28:00.489Z,40109.9
2022-07-25T18:29:00.544Z,39518.1
2022-07-25T18:31:00.547Z,38334.5
2022-07-25T18:32:00.508Z,37628.9
2022-07-25T18:33:00.491Z,36923.3
2022-07-25T18:34:00.734Z,36120.8
2022-07-25T18:35:00.862Z,35318.3
2022-07-25T18:36:04.182Z,34515.7
2022-07-25T18:37:00.495Z,34160.7
2022-07-25T18:38:00.494Z,33805.6
2022-07-25T18:39:00.527Z,33627.5
2022-07-25T18:41:19.239Z,33271.4
2022-07-25T18:42:00.527Z,32816.6
2022-07-25T18:43:00.499Z,32361.8
2022-07-25T18:44:01.171Z,31579.0
2022-07-25T18:46:00.559Z,30013.4
2022-07-25T18:47:00.500Z,29808.3
2022-07-25T18:48:00.505Z,29603.1
2022-07-25T18:49:00.606Z,29345.2
2022-07-25T18:50:01.273Z,29087.3
2022-07-25T18:51:00.568Z,28829.3
2022-07-25T18:52:00.571Z,28565.5
2022-07-25T18:53:00.502Z,28301.6
2022-07-25T18:54:00.585Z,27849.7
2022-07-25T18:56:00.502Z,26946.0
2022-07-25T18:57:00.505Z,26191.5
2022-07-25T18:58:00.515Z,25436.9
2022-07-25T18:59:00.537Z,24469.0
2022-07-25T19:01:00.508Z,22533.1
2022-07-25T19:02:00.550Z,21477.9
2022-07-25T19:03:00.503Z,20422.6
2022-07-25T19:04:00.555Z,19335.0
2022-07-25T19:06:03.323Z,17159.8
2022-07-25T19:07:00.512Z,16125.7
2022-07-25T19:08:00.513Z,15091.7
2022-07-25T19:09:00.543Z,14152.1
2022-07-25T19:10:01.347Z,13212.6
2022-07-25T19:11:00.512Z,12273.1
2022-07-25T19:12:00.512Z,11516.7
2022-07-25T19:13:00.507Z,10760.3
2022-07-25T19:14:00.543Z,10225.5
2022-07-25T19:15:01.259Z,9690.8
2022-07-25T19:16:00.544Z,9156.1
2022-07-25T19:17:00.518Z,8748.6
2022-07-25T19:18:00.512Z,8341.1
2022-07-25T19:19:00.544Z,8005.8
2022-07-25T19:20:01.171Z,7670.5
2022-07-25T19:21:00.522Z,7335.1
2022-07-25T19:22:00.550Z,7025.0
2022-07-25T19:23:00.518Z,6714.9
2022-07-25T19:24:00.568Z,6477.8
2022-07-25T19:25:01.417Z,6204.8
2022-07-25T19:26:00.528Z,5931.8
2022-07-25T19:27:00.521Z,5682.9
2022-07-25T19:28:00.525Z,5434.1
2022-07-25T19:29:05.524Z,5231.5
2022-07-25T19:30:01.162Z,4995.6
2022-07-25T19:31:00.585Z,4759.7
2022-07-25T19:32:00.523Z,4539.5
2022-07-25T19:33:00.519Z,4319.3
2022-07-25T19:34:00.608Z,4145.4
2022-07-25T19:35:01.361Z,3945.7
2022-07-25T19:36:00.524Z,3745.9
2022-07-25T19:37:00.517Z,3563.7
2022-07-25T19:38:00.519Z,3381.4
2022-07-25T19:39:00.559Z,3199.1
2022-07-25T19:40:01.222Z,3029.0
2022-07-25T19:41:00.518Z,2858.9
2022-07-25T19:42:00.521Z,2695.9
2022-07-25T19:43:00.520Z,2533.0
2022-07-25T19:44:00.568Z,2370.1
2022-07-25T19:46:00.563Z,2067.1
2022-07-25T19:47:00.524Z,1928.7
2022-07-25T19:48:00.540Z,1790.3
2022-07-25T19:49:00.568Z,1651.9
2022-07-25T19:50:01.223Z,1526.3
2022-07-25T19:51:00.518Z,1400.6
2022-07-25T19:52:00.523Z,1288.7
2022-07-25T19:53:00.522Z,1176.9
2022-07-25T19:54:00.545Z,1065.0
2022-07-25T19:55:01.227Z,969.4
2022-07-25T19:56:00.519Z,873.8
2022-07-25T19:57:00.517Z,796.7
2022-07-25T19:58:00.521Z,719.5
2022-07-25T19:59:00.554Z,642.4
2022-07-25T20:01:00.529Z,521.3
2022-07-25T20:02:00.624Z,474.9
2022-07-25T20:03:00.636Z,428.4
2022-07-25T20:04:01.598Z,381.9
2022-07-25T20:05:00.768Z,345.7
2022-07-25T20:06:03.489Z,309.5
2022-07-25T20:07:00.522Z,280.5
2022-07-25T20:08:00.522Z,251.5
2022-07-25T20:09:00.571Z,222.5
2022-07-25T20:10:01.512Z,199.3
2022-07-25T20:11:00.524Z,176.1
2022-07-25T20:12:00.528Z,158.9
2022-07-25T20:13:01.531Z,141.6
2022-07-25T20:14:00.567Z,124.3
2022-07-25T20:15:01.594Z,111.5
2022-07-25T20:16:00.532Z,98.6
2022-07-25T20:17:00.588Z,88.6
2022-07-25T20:18:00.594Z,78.6
2022-07-25T20:19:00.581Z,68.6
2022-07-25T20:20:01.240Z,60.9
2022-07-25T20:21:00.530Z,53.3
2022-07-25T20:22:00.595Z,47.7
2022-07-25T20:23:00.532Z,42.1
2022-07-25T20:24:00.569Z,36.5
2022-07-25T20:26:00.537Z,28.2
2022-07-25T20:27:00.530Z,25.2
2022-07-25T20:28:00.532Z,22.2
2022-07-25T20:29:00.565Z,19.2
2022-07-25T20:30:01.168Z,16.9
2022-07-25T20:31:00.575Z,14.7
2022-07-25T20:32:00.531Z,13.1
2022-07-25T20:33:00.537Z,11.5
2022-07-25T20:34:00.777Z,9.9
2022-07-25T20:35:00.752Z,8.7
2022-07-25T20:36:00.541Z,7.6
2022-07-25T20:37:00.533Z,6.8
2022-07-25T20:38:00.539Z,6.0
2022-07-25T20:39:00.575Z,5.2
2022-07-25T20:40:01.241Z,4.7
2022-07-25T20:41:00.530Z,4.1
2022-07-25T20:42:00.558Z,3.7
2022-07-25T20:43:00.536Z,3.2
2022-07-25T20:44:00.576Z,2.7
2022-07-25T20:46:00.547Z,2.2
2022-07-25T20:47:00.533Z,2.0
2022-07-25T20:48:00.539Z,1.8
2022-07-25T20:49:00.635Z,1.6
2022-07-25T20:50:00.822Z,1.4
2022-07-25T20:51:00.535Z,1.2
2022-07-25T20:52:00.536Z,1.1
2022-07-25T20:53:00.536Z,0.9
2022-07-25T20:54:00.560Z,0.8
2022-07-25T20:55:00.754Z,0.7
2022-07-25T20:56:00.540Z,0.5
2022-07-25T20:58:00.535Z,0.4
2022-07-25T20:59:00.578Z,0.3
2022-07-25T21:01:00.595Z,0.2
2022-07-25T21:02:00.584Z,0.1
